Time;durP1;ratioP1;P1;durP2;ratioP2;P2;SDS_P1;SDS_P2;PMS_P1;PMS_P2;Temp;Humidity;BMP_temperature;BMP_pressure;BME280_temperature;BME280_humidity;BME280_pressure;Samples;Min_cycle;Max_cycle;Signal;HPM_P1;HPM_P2
2022/11/13 00:01:52;;;;;;;9.15;6.95;;;;;;;;;;10462685;28;20293;-69
2022/11/13 00:07:12;;;;;;;10.52;7.85;;;;;;;;;;10466961;28;20218;-68
2022/11/13 00:12:32;;;;;;;10.80;7.90;;;;;;;;;;10448771;28;20683;-69
2022/11/13 00:17:52;;;;;;;11.65;7.68;;;;;;;;;;10467937;28;20630;-68
2022/11/13 00:23:12;;;;;;;10.90;7.90;;;;;;;;;;10456995;28;20234;-68
2022/11/13 00:28:32;;;;;;;11.65;8.25;;;;;;;;;;10461677;28;20206;-68
2022/11/13 00:33:52;;;;;;;9.70;7.72;;;;;;;;;;10451614;28;20213;-68
2022/11/13 00:39:12;;;;;;;8.77;7.30;;;;;;;;;;10460962;28;20253;-68
2022/11/13 00:44:32;;;;;;;9.80;7.68;;;;;;;;;;10456503;28;20206;-68
2022/11/13 00:49:51;;;;;;;10.60;7.63;;;;;;;;;;10457017;28;20214;-68
2022/11/13 00:55:11;;;;;;;13.45;8.02;;;;;;;;;;10453096;28;20218;-68
2022/11/13 01:00:32;;;;;;;10.85;7.78;;;;;;;;;;10466570;28;20222;-68
2022/11/13 01:05:51;;;;;;;12.23;7.55;;;;;;;;;;10457871;28;20210;-68
2022/11/13 01:11:13;;;;;;;10.50;7.53;;;;;;;;;;10460835;28;20210;-68
2022/11/13 01:16:32;;;;;;;15.10;8.32;;;;;;;;;;10453653;28;20218;-68
2022/11/13 01:21:52;;;;;;;12.90;9.23;;;;;;;;;;10437603;28;20234;-67
2022/11/13 01:27:14;;;;;;;11.15;7.90;;;;;;;;;;10457048;28;20296;-67
2022/11/13 01:32:33;;;;;;;14.88;8.32;;;;;;;;;;10452072;28;20681;-68
2022/11/13 01:37:53;;;;;;;15.63;8.88;;;;;;;;;;10451587;28;20209;-68
2022/11/13 01:43:26;;;;;;;14.10;9.57;;;;;;;;;;10433833;28;20218;-68
2022/11/13 01:48:54;;;;;;;11.40;8.57;;;;;;;;;;10442731;28;20602;-69
2022/11/13 01:54:16;;;;;;;13.98;9.63;;;;;;;;;;10445884;28;20289;-68
2022/11/13 01:59:39;;;;;;;13.07;9.68;;;;;;;;;;10458367;28;20686;-68
2022/11/13 02:04:59;;;;;;;13.98;9.15;;;;;;;;;;10445342;28;20194;-69
2022/11/13 02:10:19;;;;;;;11.43;8.13;;;;;;;;;;10432898;28;20218;-68
2022/11/13 02:15:39;;;;;;;12.68;7.72;;;;;;;;;;10449588;28;20206;-68
2022/11/13 02:20:59;;;;;;;10.27;8.15;;;;;;;;;;10447434;28;20226;-68
2022/11/13 02:26:20;;;;;;;7.68;6.88;;;;;;;;;;10451838;28;20214;-69
2022/11/13 02:31:40;;;;;;;11.73;7.82;;;;;;;;;;10455731;28;21390;-69
2022/11/13 02:37:00;;;;;;;9.57;6.70;;;;;;;;;;10455880;28;20225;-69
2022/11/13 02:42:20;;;;;;;10.32;7.63;;;;;;;;;;10447113;28;20238;-69
2022/11/13 02:47:40;;;;;;;8.80;7.38;;;;;;;;;;10446869;28;20219;-69
2022/11/13 02:53:00;;;;;;;7.70;6.88;;;;;;;;;;10460464;28;20206;-69
2022/11/13 02:58:19;;;;;;;7.97;6.43;;;;;;;;;;10443663;28;20219;-68
2022/11/13 03:03:39;;;;;;;9.18;7.60;;;;;;;;;;10454379;28;20839;-69
2022/11/13 03:08:59;;;;;;;8.15;7.03;;;;;;;;;;10452490;28;20214;-69
2022/11/13 03:14:19;;;;;;;7.18;6.45;;;;;;;;;;10448802;28;20214;-67
2022/11/13 03:19:38;;;;;;;7.40;6.40;;;;;;;;;;10453393;28;20496;-67
2022/11/13 03:24:58;;;;;;;8.07;6.72;;;;;;;;;;10457917;28;20202;-68
2022/11/13 03:30:18;;;;;;;8.77;6.70;;;;;;;;;;10450065;28;20682;-68
2022/11/13 03:35:38;;;;;;;7.45;6.65;;;;;;;;;;10429918;28;20210;-68
2022/11/13 03:40:58;;;;;;;15.35;6.43;;;;;;;;;;10442708;28;20715;-67
2022/11/13 03:46:18;;;;;;;9.90;7.47;;;;;;;;;;10440997;28;20218;-68
2022/11/13 03:51:38;;;;;;;10.38;6.88;;;;;;;;;;10455515;28;20206;-67
2022/11/13 03:56:58;;;;;;;8.85;6.78;;;;;;;;;;10437710;28;20214;-68
2022/11/13 04:02:18;;;;;;;10.27;7.07;;;;;;;;;;10454359;28;20217;-68
2022/11/13 04:07:38;;;;;;;9.70;7.50;;;;;;;;;;10452542;28;20531;-67
2022/11/13 04:12:57;;;;;;;7.97;7.00;;;;;;;;;;10457476;28;20214;-67
2022/11/13 04:18:17;;;;;;;11.18;6.72;;;;;;;;;;10451523;28;20222;-68
2022/11/13 04:23:37;;;;;;;11.07;6.85;;;;;;;;;;10446985;28;20301;-68
2022/11/13 04:28:57;;;;;;;12.77;7.30;;;;;;;;;;10444571;28;20749;-67
2022/11/13 04:34:17;;;;;;;18.33;8.90;;;;;;;;;;10450264;28;20244;-68
2022/11/13 04:39:37;;;;;;;15.15;9.23;;;;;;;;;;10445622;28;20218;-67
2022/11/13 04:44:57;;;;;;;15.02;8.60;;;;;;;;;;10453123;28;20210;-67
2022/11/13 04:50:17;;;;;;;15.65;8.25;;;;;;;;;;10438997;28;20242;-67
2022/11/13 04:55:36;;;;;;;14.35;9.25;;;;;;;;;;10451901;28;20851;-68
2022/11/13 05:00:56;;;;;;;19.10;8.35;;;;;;;;;;10453729;28;20902;-68
2022/11/13 05:06:16;;;;;;;15.55;8.38;;;;;;;;;;10440365;28;20206;-68
2022/11/13 05:11:36;;;;;;;19.10;8.35;;;;;;;;;;10434920;28;20218;-67
2022/11/13 05:16:56;;;;;;;14.77;7.38;;;;;;;;;;10433746;28;20637;-67
2022/11/13 05:22:16;;;;;;;11.35;6.60;;;;;;;;;;10450364;28;20222;-69
2022/11/13 05:27:36;;;;;;;8.63;4.78;;;;;;;;;;10439319;28;20260;-68
2022/11/13 05:32:56;;;;;;;21.88;6.00;;;;;;;;;;10440072;28;20218;-68
2022/11/13 05:38:15;;;;;;;33.40;6.68;;;;;;;;;;10449475;28;20308;-67
2022/11/13 05:43:36;;;;;;;25.60;6.18;;;;;;;;;;10432647;28;20313;-68
2022/11/13 05:49:00;;;;;;;23.65;7.18;;;;;;;;;;10450913;28;20588;-67
2022/11/13 05:54:20;;;;;;;41.22;7.32;;;;;;;;;;10434461;28;20214;-67
2022/11/13 05:59:39;;;;;;;16.85;6.55;;;;;;;;;;10446159;28;20214;-67
2022/11/13 06:04:59;;;;;;;18.73;7.35;;;;;;;;;;10444693;28;20213;-68
2022/11/13 06:10:19;;;;;;;18.25;5.80;;;;;;;;;;10441160;28;20210;-67
2022/11/13 06:15:39;;;;;;;21.00;7.63;;;;;;;;;;10455232;28;20211;-68
2022/11/13 06:21:05;;;;;;;22.75;7.00;;;;;;;;;;10480665;28;20229;-67
2022/11/13 06:26:30;;;;;;;19.50;8.05;;;;;;;;;;10501904;28;20217;-67
2022/11/13 06:31:50;;;;;;;26.85;6.88;;;;;;;;;;10491814;28;20217;-67
2022/11/13 06:37:10;;;;;;;19.58;8.52;;;;;;;;;;10501010;28;20683;-67
2022/11/13 06:42:29;;;;;;;31.67;7.90;;;;;;;;;;10498049;28;20217;-68
2022/11/13 06:47:49;;;;;;;25.13;8.95;;;;;;;;;;10501495;28;20209;-68
2022/11/13 06:53:09;;;;;;;17.42;7.60;;;;;;;;;;10494830;28;20233;-68
2022/11/13 06:58:29;;;;;;;29.63;8.63;;;;;;;;;;10503963;28;20305;-68
2022/11/13 07:03:49;;;;;;;24.70;9.32;;;;;;;;;;10486280;28;20222;-67
2022/11/13 07:09:08;;;;;;;29.35;9.07;;;;;;;;;;10499286;28;20209;-67
2022/11/13 07:14:28;;;;;;;32.17;8.50;;;;;;;;;;10498083;28;20765;-68
2022/11/13 07:19:48;;;;;;;22.90;8.85;;;;;;;;;;10464964;28;20257;-69
2022/11/13 07:25:08;;;;;;;43.10;8.98;;;;;;;;;;10440046;28;20224;-68
2022/11/13 07:30:28;;;;;;;32.08;9.82;;;;;;;;;;10458126;28;20210;-67
2022/11/13 07:35:48;;;;;;;25.67;8.55;;;;;;;;;;10450194;28;20210;-67
2022/11/13 07:41:08;;;;;;;30.08;8.82;;;;;;;;;;10465878;28;20217;-67
2022/11/13 07:46:27;;;;;;;31.15;7.50;;;;;;;;;;10459777;28;20678;-67
2022/11/13 07:51:47;;;;;;;25.23;7.32;;;;;;;;;;10461415;28;20245;-68
2022/11/13 07:57:07;;;;;;;21.08;8.48;;;;;;;;;;10460612;28;20215;-68
2022/11/13 08:02:27;;;;;;;19.73;7.35;;;;;;;;;;10460107;28;20218;-67
2022/11/13 08:07:47;;;;;;;21.83;8.05;;;;;;;;;;10461101;28;20241;-67
2022/11/13 08:13:09;;;;;;;27.77;8.38;;;;;;;;;;10462738;28;20222;-67
2022/11/13 08:18:29;;;;;;;37.75;8.98;;;;;;;;;;10461084;28;20730;-68
2022/11/13 08:23:49;;;;;;;42.75;9.13;;;;;;;;;;10450350;28;20290;-68
2022/11/13 08:29:09;;;;;;;35.95;8.35;;;;;;;;;;10452423;28;20218;-68
2022/11/13 08:34:28;;;;;;;26.73;8.23;;;;;;;;;;10463000;28;20214;-70
2022/11/13 08:39:48;;;;;;;33.08;8.57;;;;;;;;;;10451073;28;20219;-70
2022/11/13 08:45:08;;;;;;;36.75;7.93;;;;;;;;;;10455873;28;20211;-70
2022/11/13 08:50:28;;;;;;;31.63;7.63;;;;;;;;;;10462892;28;20256;-69
2022/11/13 08:55:48;;;;;;;19.17;7.95;;;;;;;;;;10449306;28;20653;-70
2022/11/13 09:01:08;;;;;;;19.05;7.20;;;;;;;;;;10459819;28;20710;-69
2022/11/13 09:06:28;;;;;;;28.70;8.00;;;;;;;;;;10458800;28;20686;-69
2022/11/13 09:11:48;;;;;;;41.42;10.05;;;;;;;;;;10451150;28;20242;-67
2022/11/13 09:17:08;;;;;;;30.48;10.05;;;;;;;;;;10456472;28;22248;-68
2022/11/13 09:22:28;;;;;;;29.17;11.43;;;;;;;;;;10459686;28;20222;-70
2022/11/13 09:27:55;;;;;;;30.52;10.50;;;;;;;;;;10463818;28;20202;-70
2022/11/13 09:33:14;;;;;;;34.95;10.70;;;;;;;;;;10461211;28;20210;-69
2022/11/13 09:38:34;;;;;;;31.48;11.48;;;;;;;;;;10461738;28;21000;-70
2022/11/13 09:43:55;;;;;;;30.33;11.43;;;;;;;;;;10454679;28;20230;-68
2022/11/13 09:49:16;;;;;;;35.15;12.32;;;;;;;;;;10463427;28;20309;-69
2022/11/13 09:54:36;;;;;;;28.85;11.98;;;;;;;;;;10440100;28;20245;-71
2022/11/13 09:59:59;;;;;;;33.90;13.20;;;;;;;;;;10445988;28;20221;-71
2022/11/13 10:05:24;;;;;;;30.17;11.05;;;;;;;;;;10443081;28;20293;-68
2022/11/13 10:10:53;;;;;;;38.55;13.95;;;;;;;;;;10457932;28;20218;-71
2022/11/13 10:16:18;;;;;;;31.15;13.40;;;;;;;;;;10455954;28;20206;-70
2022/11/13 10:21:44;;;;;;;28.90;13.32;;;;;;;;;;10462376;28;20219;-71
2022/11/13 10:27:08;;;;;;;30.80;14.25;;;;;;;;;;10459772;28;20203;-69
2022/11/13 10:32:31;;;;;;;35.92;14.80;;;;;;;;;;10460703;28;20203;-69
2022/11/13 10:38:04;;;;;;;34.40;15.13;;;;;;;;;;10456583;28;20210;-69
2022/11/13 10:43:25;;;;;;;37.22;15.63;;;;;;;;;;10452796;28;20218;-71
2022/11/13 10:48:44;;;;;;;25.10;13.48;;;;;;;;;;10458820;28;20218;-69
2022/11/13 10:54:30;;;;;;;32.50;15.35;;;;;;;;;;10454413;28;20229;-69
2022/11/13 10:59:50;;;;;;;26.05;14.18;;;;;;;;;;10446261;28;20213;-72
2022/11/13 11:05:18;;;;;;;38.67;15.07;;;;;;;;;;10448275;28;20297;-71
2022/11/13 11:12:14;;;;;;;30.98;15.30;;;;;;;;;;10461212;28;20213;-71
2022/11/13 11:16:21;;;;;;;32.70;15.38;;;;;;;;;;10468825;28;20206;-70
2022/11/13 11:21:41;;;;;;;39.60;16.02;;;;;;;;;;10498761;28;20221;-71
2022/11/13 11:27:04;;;;;;;28.17;14.80;;;;;;;;;;10511550;28;20217;-70
2022/11/13 11:32:30;;;;;;;32.63;15.13;;;;;;;;;;10509916;28;20703;-70
2022/11/13 11:38:22;;;;;;;27.90;14.40;;;;;;;;;;10503232;28;20214;-69
2022/11/13 11:44:00;;;;;;;30.40;15.57;;;;;;;;;;10472940;28;20240;-67
2022/11/13 11:49:22;;;;;;;32.70;15.82;;;;;;;;;;10509054;28;20226;-71
2022/11/13 11:54:46;;;;;;;34.70;15.93;;;;;;;;;;10505702;28;20586;-71
2022/11/13 12:00:09;;;;;;;32.83;16.15;;;;;;;;;;10505747;28;20225;-71
2022/11/13 12:05:37;;;;;;;32.83;17.23;;;;;;;;;;10492654;28;20229;-70
2022/11/13 12:11:06;;;;;;;30.13;15.68;;;;;;;;;;10505827;28;20672;-70
2022/11/13 12:16:29;;;;;;;31.05;15.02;;;;;;;;;;10502600;28;20205;-70
2022/11/13 12:22:12;;;;;;;31.60;15.95;;;;;;;;;;10460244;28;20653;-70
2022/11/13 12:27:37;;;;;;;33.72;16.65;;;;;;;;;;10444845;28;20242;-70
2022/11/13 12:33:08;;;;;;;28.73;15.52;;;;;;;;;;10466415;28;20304;-69
2022/11/13 12:38:36;;;;;;;25.33;14.93;;;;;;;;;;10459282;28;20682;-70
2022/11/13 12:43:58;;;;;;;28.48;15.80;;;;;;;;;;10459264;28;20226;-71
2022/11/13 12:49:21;;;;;;;33.30;16.52;;;;;;;;;;10448696;28;20219;-69
2022/11/13 12:54:41;;;;;;;29.88;16.23;;;;;;;;;;10449733;28;20214;-70
2022/11/13 13:00:12;;;;;;;31.27;15.77;;;;;;;;;;10464730;28;20724;-71
2022/11/13 13:05:31;;;;;;;25.08;15.05;;;;;;;;;;10456587;28;20662;-71
2022/11/13 13:10:51;;;;;;;27.83;16.38;;;;;;;;;;10461153;28;20218;-71
2022/11/13 13:16:11;;;;;;;36.72;18.55;;;;;;;;;;10461874;28;20210;-71
2022/11/13 13:21:39;;;;;;;29.55;15.30;;;;;;;;;;10455256;28;20231;-71
2022/11/13 13:26:59;;;;;;;31.13;16.80;;;;;;;;;;10460439;28;20211;-71
2022/11/13 13:32:22;;;;;;;35.00;17.20;;;;;;;;;;10457260;28;20214;-70
2022/11/13 13:37:57;;;;;;;37.95;18.00;;;;;;;;;;10462210;28;20207;-71
2022/11/13 13:43:26;;;;;;;29.55;15.68;;;;;;;;;;10440377;28;20628;-71
2022/11/13 13:48:47;;;;;;;32.88;17.17;;;;;;;;;;10459605;28;20994;-71
2022/11/13 13:54:08;;;;;;;26.27;15.43;;;;;;;;;;10456293;28;20993;-70
2022/11/13 13:59:27;;;;;;;37.70;17.80;;;;;;;;;;10463508;28;20810;-70
2022/11/13 14:04:48;;;;;;;27.80;14.43;;;;;;;;;;10462601;28;20202;-70
2022/11/13 14:10:16;;;;;;;30.00;15.18;;;;;;;;;;10466778;28;20234;-71
2022/11/13 14:15:35;;;;;;;28.05;15.32;;;;;;;;;;10449959;28;20211;-69
2022/11/13 14:20:57;;;;;;;27.80;15.63;;;;;;;;;;10457420;28;20237;-71
2022/11/13 14:26:18;;;;;;;28.48;15.50;;;;;;;;;;10455075;28;20207;-70
2022/11/13 14:31:37;;;;;;;27.92;14.73;;;;;;;;;;10451750;28;20209;-71
2022/11/13 14:37:08;;;;;;;28.48;14.38;;;;;;;;;;10438002;28;20304;-71
2022/11/13 14:42:35;;;;;;;56.35;29.52;;;;;;;;;;10455304;28;20211;-69
2022/11/13 14:47:55;;;;;;;37.58;21.35;;;;;;;;;;10441949;28;20219;-68
2022/11/13 14:53:25;;;;;;;39.03;22.77;;;;;;;;;;10454568;28;20214;-69
2022/11/13 14:58:48;;;;;;;36.60;19.63;;;;;;;;;;10441783;28;20215;-69
2022/11/13 15:04:08;;;;;;;28.67;14.77;;;;;;;;;;10456049;28;20804;-68
2022/11/13 15:09:29;;;;;;;27.38;14.00;;;;;;;;;;10445588;28;20791;-72
2022/11/13 15:14:49;;;;;;;27.98;14.48;;;;;;;;;;10439661;28;20217;-72
2022/11/13 15:20:23;;;;;;;20.95;12.90;;;;;;;;;;10444920;28;20759;-72
2022/11/13 15:25:43;;;;;;;25.00;13.32;;;;;;;;;;10451540;28;20206;-72
2022/11/13 15:31:02;;;;;;;20.83;12.38;;;;;;;;;;10455454;28;20221;-71
2022/11/13 15:36:22;;;;;;;23.48;12.77;;;;;;;;;;10443371;28;20206;-72
2022/11/13 15:41:42;;;;;;;20.85;13.07;;;;;;;;;;10450267;28;20234;-71
2022/11/13 15:47:02;;;;;;;18.75;11.38;;;;;;;;;;10456784;28;20237;-72
2022/11/13 15:52:22;;;;;;;20.25;11.68;;;;;;;;;;10447290;28;20325;-71
2022/11/13 15:57:42;;;;;;;19.23;11.20;;;;;;;;;;10452955;28;20214;-69
2022/11/13 16:03:09;;;;;;;18.50;11.20;;;;;;;;;;10460234;28;20250;-69
2022/11/13 16:08:29;;;;;;;20.80;11.48;;;;;;;;;;10442426;28;20213;-70
2022/11/13 16:13:49;;;;;;;19.27;10.15;;;;;;;;;;10459365;28;20214;-69
2022/11/13 16:19:20;;;;;;;21.15;12.23;;;;;;;;;;10452858;28;20238;-70
2022/11/13 16:24:40;;;;;;;22.27;13.32;;;;;;;;;;10464039;28;20217;-69
2022/11/13 16:30:00;;;;;;;21.48;13.45;;;;;;;;;;10468442;28;20210;-68
2022/11/13 16:35:20;;;;;;;19.77;12.35;;;;;;;;;;10461783;28;20214;-73
2022/11/13 16:40:41;;;;;;;28.17;15.75;;;;;;;;;;10448245;28;20218;-70
2022/11/13 16:46:01;;;;;;;31.77;17.15;;;;;;;;;;10451565;28;20310;-70
2022/11/13 16:51:21;;;;;;;25.00;14.68;;;;;;;;;;10465581;28;20210;-70
2022/11/13 16:56:41;;;;;;;25.92;15.57;;;;;;;;;;10461787;28;20206;-69
2022/11/13 17:02:00;;;;;;;25.95;14.57;;;;;;;;;;10459478;28;20698;-67
2022/11/13 17:07:20;;;;;;;23.77;13.93;;;;;;;;;;10463078;28;20209;-67
2022/11/13 17:12:41;;;;;;;21.63;13.20;;;;;;;;;;10454861;28;20217;-66
2022/11/13 17:18:01;;;;;;;21.88;12.98;;;;;;;;;;10460011;28;20238;-67
2022/11/13 17:23:21;;;;;;;28.50;14.65;;;;;;;;;;10449768;28;20226;-68
2022/11/13 17:28:41;;;;;;;24.63;13.40;;;;;;;;;;10440991;28;20215;-67
2022/11/13 17:34:01;;;;;;;25.23;13.88;;;;;;;;;;10462596;28;20309;-67
2022/11/13 17:39:20;;;;;;;25.00;13.63;;;;;;;;;;10465890;28;20209;-68
2022/11/13 17:44:42;;;;;;;21.15;13.38;;;;;;;;;;10462318;28;20214;-67
2022/11/13 17:50:02;;;;;;;23.70;13.65;;;;;;;;;;10450040;28;20222;-68
2022/11/13 17:55:21;;;;;;;23.08;14.20;;;;;;;;;;10464099;28;20214;-67
2022/11/13 18:00:41;;;;;;;27.35;15.27;;;;;;;;;;10466006;28;20483;-69
2022/11/13 18:06:03;;;;;;;21.90;12.95;;;;;;;;;;10459883;28;20217;-68
2022/11/13 18:11:25;;;;;;;24.92;12.73;;;;;;;;;;10453418;28;20688;-68
2022/11/13 18:16:44;;;;;;;20.00;11.85;;;;;;;;;;10453592;28;20214;-69
2022/11/13 18:22:04;;;;;;;19.30;11.32;;;;;;;;;;10471015;28;20217;-68
2022/11/13 18:27:24;;;;;;;17.23;10.52;;;;;;;;;;10462928;28;20697;-69
2022/11/13 18:32:44;;;;;;;14.18;10.00;;;;;;;;;;10474338;28;20221;-69
2022/11/13 18:38:04;;;;;;;13.20;9.63;;;;;;;;;;10478222;28;20241;-69
2022/11/13 18:43:23;;;;;;;14.88;9.00;;;;;;;;;;10476165;28;20226;-69
2022/11/13 18:48:43;;;;;;;15.02;8.15;;;;;;;;;;10475903;28;20214;-68
2022/11/13 18:54:03;;;;;;;15.13;9.10;;;;;;;;;;10460768;28;20320;-69
2022/11/13 18:59:23;;;;;;;19.60;10.10;;;;;;;;;;10477308;28;20218;-69
2022/11/13 19:04:43;;;;;;;19.55;12.50;;;;;;;;;;10448379;28;20214;-69
2022/11/13 19:10:03;;;;;;;23.02;13.07;;;;;;;;;;10453036;28;20210;-69
2022/11/13 19:15:23;;;;;;;23.92;13.23;;;;;;;;;;10470018;28;20218;-68
2022/11/13 19:20:43;;;;;;;24.27;12.35;;;;;;;;;;10495939;28;20316;-68
2022/11/13 19:26:03;;;;;;;26.13;14.90;;;;;;;;;;10488187;28;20218;-67
2022/11/13 19:31:24;;;;;;;22.45;11.48;;;;;;;;;;10485349;28;20632;-68
2022/11/13 19:36:45;;;;;;;17.13;10.18;;;;;;;;;;10501160;28;20216;-67
2022/11/13 19:42:05;;;;;;;21.52;10.18;;;;;;;;;;10487744;28;20780;-65
2022/11/13 19:47:24;;;;;;;17.98;10.45;;;;;;;;;;10490146;28;20688;-65
2022/11/13 19:52:44;;;;;;;20.60;11.15;;;;;;;;;;10496717;28;20244;-66
2022/11/13 19:58:04;;;;;;;21.55;10.60;;;;;;;;;;10498635;28;20219;-67
2022/11/13 20:03:26;;;;;;;16.30;10.65;;;;;;;;;;10497982;28;20605;-67
2022/11/13 20:08:45;;;;;;;20.65;11.32;;;;;;;;;;10500273;28;20584;-67
2022/11/13 20:14:05;;;;;;;21.30;12.60;;;;;;;;;;10493662;28;20214;-67
2022/11/13 20:19:25;;;;;;;21.38;12.35;;;;;;;;;;10501306;28;20229;-67
2022/11/13 20:24:45;;;;;;;17.45;10.52;;;;;;;;;;10494469;28;20757;-65
2022/11/13 20:30:05;;;;;;;16.45;10.07;;;;;;;;;;10498710;28;20210;-66
2022/11/13 20:35:25;;;;;;;18.38;9.90;;;;;;;;;;10500375;28;20239;-66
2022/11/13 20:40:45;;;;;;;19.60;10.13;;;;;;;;;;10490921;28;20229;-69
2022/11/13 20:46:11;;;;;;;19.75;10.32;;;;;;;;;;10490187;28;20241;-68
2022/11/13 20:51:31;;;;;;;24.75;12.63;;;;;;;;;;10500717;28;20209;-69
2022/11/13 20:56:51;;;;;;;23.80;12.07;;;;;;;;;;10502149;28;20213;-69
2022/11/13 21:02:12;;;;;;;19.77;11.00;;;;;;;;;;10487494;28;20425;-68
2022/11/13 21:07:32;;;;;;;19.20;11.13;;;;;;;;;;10487073;28;20744;-69
2022/11/13 21:12:51;;;;;;;22.60;11.50;;;;;;;;;;10495918;28;20665;-69
2022/11/13 21:18:11;;;;;;;18.00;9.85;;;;;;;;;;10496042;28;20321;-68
2022/11/13 21:23:31;;;;;;;23.95;11.30;;;;;;;;;;10501298;28;20576;-68
2022/11/13 21:28:55;;;;;;;21.48;11.63;;;;;;;;;;10474872;28;20221;-69
2022/11/13 21:34:15;;;;;;;20.30;11.35;;;;;;;;;;10501771;28;20205;-69
2022/11/13 21:39:35;;;;;;;22.50;10.05;;;;;;;;;;10500095;28;20678;-68
2022/11/13 21:44:55;;;;;;;23.13;10.32;;;;;;;;;;10495872;28;20225;-69
2022/11/13 21:50:15;;;;;;;24.08;11.20;;;;;;;;;;10485929;28;20640;-69
2022/11/13 21:55:34;;;;;;;20.38;11.15;;;;;;;;;;10499732;28;20206;-68
2022/11/13 22:00:54;;;;;;;24.02;11.27;;;;;;;;;;10498474;28;20600;-69
2022/11/13 22:06:24;;;;;;;24.08;11.20;;;;;;;;;;10496820;28;20214;-69
2022/11/13 22:11:44;;;;;;;19.02;10.23;;;;;;;;;;10500923;28;20240;-68
2022/11/13 22:17:04;;;;;;;18.77;10.48;;;;;;;;;;10497618;28;20213;-69
2022/11/13 22:22:24;;;;;;;19.63;10.93;;;;;;;;;;10501016;28;20629;-69
2022/11/13 22:27:43;;;;;;;21.30;10.57;;;;;;;;;;10495997;28;20368;-69
2022/11/13 22:33:04;;;;;;;22.38;12.10;;;;;;;;;;10494674;28;20616;-69
2022/11/13 22:38:24;;;;;;;26.75;11.68;;;;;;;;;;10478683;28;20660;-69
2022/11/13 22:43:45;;;;;;;22.23;11.70;;;;;;;;;;10499270;28;20245;-69
2022/11/13 22:49:05;;;;;;;20.15;10.23;;;;;;;;;;10500273;28;20591;-69
2022/11/13 22:54:25;;;;;;;24.23;12.27;;;;;;;;;;10495202;28;20701;-69
2022/11/13 22:59:45;;;;;;;23.98;12.43;;;;;;;;;;10489796;28;20673;-69
2022/11/13 23:05:05;;;;;;;26.73;12.27;;;;;;;;;;10499310;28;20685;-70
2022/11/13 23:10:24;;;;;;;19.83;10.95;;;;;;;;;;10499939;28;20304;-69
2022/11/13 23:15:45;;;;;;;22.42;11.52;;;;;;;;;;10506541;28;20222;-69
2022/11/13 23:21:04;;;;;;;19.73;12.00;;;;;;;;;;10505495;28;20237;-69
2022/11/13 23:26:24;;;;;;;19.60;10.27;;;;;;;;;;10503683;28;20617;-69
2022/11/13 23:31:44;;;;;;;26.90;12.10;;;;;;;;;;10496754;28;20323;-69
2022/11/13 23:37:04;;;;;;;23.48;12.40;;;;;;;;;;10500489;28;20237;-68
2022/11/13 23:42:23;;;;;;;27.13;11.85;;;;;;;;;;10498066;28;20209;-68
2022/11/13 23:47:43;;;;;;;26.08;10.63;;;;;;;;;;10504872;28;20210;-68
2022/11/13 23:53:03;;;;;;;19.23;9.88;;;;;;;;;;10502127;28;20221;-67
2022/11/13 23:58:23;;;;;;;22.23;10.43;;;;;;;;;;10507589;28;20217;-67
